Time;durP1;ratioP1;P1;durP2;ratioP2;P2;SDS_P1;SDS_P2;PMS_P1;PMS_P2;Temp;Humidity;BMP_temperature;BMP_pressure;BME280_temperature;BME280_humidity;BME280_pressure;Samples;Min_cycle;Max_cycle;Signal;HPM_P1;HPM_P2
2023/06/17 00:01:25;;;;;;;11.10;5.93;;;;;;;;;;5113009;27;20082;-69
2023/06/17 00:03:51;;;;;;;13.55;7.15;;;;;;;;;;5126278;27;20084;-69
2023/06/17 00:06:17;;;;;;;13.30;7.90;;;;;;;;;;5110107;27;20075;-70
2023/06/17 00:08:43;;;;;;;14.10;8.32;;;;;;;;;;5108538;27;20110;-70
2023/06/17 00:11:10;;;;;;;14.10;8.10;;;;;;;;;;5113080;27;20467;-70
2023/06/17 00:13:37;;;;;;;10.68;7.97;;;;;;;;;;5119522;27;20036;-70
2023/06/17 00:16:04;;;;;;;11.02;8.32;;;;;;;;;;5118529;27;20407;-70
2023/06/17 00:18:32;;;;;;;13.70;8.20;;;;;;;;;;5133257;27;20043;-70
2023/06/17 00:20:58;;;;;;;16.38;8.35;;;;;;;;;;5121845;27;20035;-69
2023/06/17 00:23:25;;;;;;;12.65;8.98;;;;;;;;;;5136215;27;20064;-70
2023/06/17 00:25:51;;;;;;;16.73;8.80;;;;;;;;;;5139606;27;20039;-69
2023/06/17 00:28:17;;;;;;;16.85;9.32;;;;;;;;;;5113357;27;20494;-70
2023/06/17 00:30:46;;;;;;;19.60;9.00;;;;;;;;;;5106681;27;20054;-70
2023/06/17 00:33:12;;;;;;;18.45;10.68;;;;;;;;;;5115126;27;20689;-69
2023/06/17 00:35:38;;;;;;;18.75;9.52;;;;;;;;;;5131237;27;20043;-70
2023/06/17 00:38:04;;;;;;;16.27;9.48;;;;;;;;;;5108097;27;20039;-70
2023/06/17 00:40:31;;;;;;;16.83;9.98;;;;;;;;;;5112126;27;20035;-70
2023/06/17 00:42:57;;;;;;;17.95;9.73;;;;;;;;;;5127670;27;20035;-70
2023/06/17 00:45:23;;;;;;;17.20;9.05;;;;;;;;;;5113192;27;20043;-69
2023/06/17 00:47:50;;;;;;;16.52;9.60;;;;;;;;;;5105047;27;20562;-70
2023/06/17 00:50:17;;;;;;;12.88;9.07;;;;;;;;;;5128593;27;20078;-70
2023/06/17 00:52:48;;;;;;;13.93;9.55;;;;;;;;;;5112641;27;20451;-70
2023/06/17 00:55:15;;;;;;;12.93;9.90;;;;;;;;;;5118418;27;20035;-69
2023/06/17 00:57:41;;;;;;;18.85;10.38;;;;;;;;;;5131834;27;20490;-70
2023/06/17 01:00:10;;;;;;;16.75;10.30;;;;;;;;;;5130391;27;20043;-69
2023/06/17 01:02:40;;;;;;;18.15;10.90;;;;;;;;;;5107140;27;20047;-70
2023/06/17 01:05:11;;;;;;;18.13;10.80;;;;;;;;;;5124055;27;20077;-70
2023/06/17 01:07:39;;;;;;;23.15;11.55;;;;;;;;;;5110420;28;20046;-70
2023/06/17 01:10:08;;;;;;;19.08;10.93;;;;;;;;;;5131884;27;20043;-69
2023/06/17 01:12:34;;;;;;;20.77;11.50;;;;;;;;;;5132279;27;20438;-70
2023/06/17 01:15:01;;;;;;;18.85;11.18;;;;;;;;;;5132507;28;20039;-69
2023/06/17 01:17:28;;;;;;;19.65;10.30;;;;;;;;;;5121959;28;20459;-70
2023/06/17 01:19:56;;;;;;;19.13;10.85;;;;;;;;;;5097458;28;20059;-70
2023/06/17 01:22:22;;;;;;;19.80;11.63;;;;;;;;;;5101674;28;20076;-70
2023/06/17 01:24:49;;;;;;;19.17;11.23;;;;;;;;;;5126240;28;20118;-69
2023/06/17 01:27:16;;;;;;;19.95;13.40;;;;;;;;;;5132210;28;20313;-70
2023/06/17 01:29:43;;;;;;;17.30;13.00;;;;;;;;;;5120610;28;20048;-70
2023/06/17 01:32:09;;;;;;;21.48;13.15;;;;;;;;;;5129495;28;20058;-69
2023/06/17 01:34:54;;;;;;;18.33;13.50;;;;;;;;;;5132277;28;20043;-70
2023/06/17 01:37:24;;;;;;;25.50;14.25;;;;;;;;;;5130342;28;20984;-70
2023/06/17 01:39:50;;;;;;;18.25;13.60;;;;;;;;;;5131525;28;20058;-70
2023/06/17 01:42:21;;;;;;;20.70;14.32;;;;;;;;;;5132520;28;20397;-69
2023/06/17 01:44:48;;;;;;;27.75;14.65;;;;;;;;;;5110240;27;20100;-69
2023/06/17 01:47:14;;;;;;;25.63;16.15;;;;;;;;;;5128917;27;20039;-69
2023/06/17 01:49:40;;;;;;;26.60;14.85;;;;;;;;;;5131097;28;20043;-70
2023/06/17 01:52:09;;;;;;;29.83;16.30;;;;;;;;;;5130917;27;20049;-70
2023/06/17 01:54:35;;;;;;;23.38;15.93;;;;;;;;;;5127236;27;20050;-70
2023/06/17 01:57:01;;;;;;;21.08;15.80;;;;;;;;;;5131672;28;20120;-69
2023/06/17 01:59:28;;;;;;;30.17;15.35;;;;;;;;;;5129590;27;20042;-70
2023/06/17 02:01:54;;;;;;;22.02;15.43;;;;;;;;;;5131274;27;20446;-69
2023/06/17 02:04:20;;;;;;;24.17;15.20;;;;;;;;;;5125278;27;20039;-70
2023/06/17 02:06:46;;;;;;;23.73;15.95;;;;;;;;;;5128807;27;20488;-69
2023/06/17 02:09:13;;;;;;;21.63;15.85;;;;;;;;;;5132063;28;20088;-69
2023/06/17 02:11:39;;;;;;;22.20;15.95;;;;;;;;;;5115577;27;20062;-70
2023/06/17 02:14:06;;;;;;;26.77;16.58;;;;;;;;;;5106676;28;20035;-69
2023/06/17 02:16:32;;;;;;;28.88;17.55;;;;;;;;;;5113007;27;20176;-70
2023/06/17 02:18:58;;;;;;;22.98;16.65;;;;;;;;;;5132493;27;20046;-69
2023/06/17 02:21:24;;;;;;;23.33;15.10;;;;;;;;;;5107466;27;20072;-70
2023/06/17 02:23:51;;;;;;;27.70;15.93;;;;;;;;;;5112571;27;20032;-70
2023/06/17 02:26:17;;;;;;;24.85;15.10;;;;;;;;;;5120615;27;20058;-70
2023/06/17 02:28:43;;;;;;;21.15;15.27;;;;;;;;;;5131354;27;20039;-69
2023/06/17 02:31:10;;;;;;;25.80;16.10;;;;;;;;;;5122734;27;20525;-70
2023/06/17 02:33:36;;;;;;;20.73;15.55;;;;;;;;;;5131831;27;20039;-70
2023/06/17 02:36:03;;;;;;;22.55;14.52;;;;;;;;;;5135213;27;20088;-70
2023/06/17 02:38:29;;;;;;;22.77;15.20;;;;;;;;;;5125462;27;20043;-70
2023/06/17 02:40:55;;;;;;;27.50;18.35;;;;;;;;;;5134725;27;20432;-70
2023/06/17 02:43:21;;;;;;;17.30;13.82;;;;;;;;;;5131950;27;20039;-69
2023/06/17 02:45:47;;;;;;;25.95;16.70;;;;;;;;;;5133352;27;20048;-69
2023/06/17 02:48:13;;;;;;;22.80;15.55;;;;;;;;;;5110238;27;20039;-70
2023/06/17 02:50:40;;;;;;;23.90;15.07;;;;;;;;;;5132299;27;20039;-70
2023/06/17 02:53:07;;;;;;;24.80;16.83;;;;;;;;;;5115930;27;20043;-70
2023/06/17 02:55:33;;;;;;;24.92;18.38;;;;;;;;;;5132933;27;20607;-69
2023/06/17 02:58:00;;;;;;;29.88;20.73;;;;;;;;;;5134136;27;20031;-69
2023/06/17 03:00:27;;;;;;;26.08;21.50;;;;;;;;;;5131164;27;20031;-69
2023/06/17 03:02:53;;;;;;;28.17;21.77;;;;;;;;;;5145321;27;20039;-69
2023/06/17 03:05:19;;;;;;;25.73;19.98;;;;;;;;;;5124295;27;20363;-70
2023/06/17 03:07:46;;;;;;;30.02;20.45;;;;;;;;;;5132578;27;20035;-69
2023/06/17 03:10:12;;;;;;;30.15;22.65;;;;;;;;;;5134122;27;20470;-70
2023/06/17 03:12:39;;;;;;;29.27;22.20;;;;;;;;;;5118935;27;20075;-70
2023/06/17 03:15:05;;;;;;;27.33;20.00;;;;;;;;;;5134945;27;20472;-70
2023/06/17 03:17:31;;;;;;;30.42;20.48;;;;;;;;;;5134342;27;20054;-70
2023/06/17 03:19:59;;;;;;;27.33;19.80;;;;;;;;;;5132709;27;20109;-70
2023/06/17 03:22:25;;;;;;;27.20;19.83;;;;;;;;;;5149511;27;20436;-69
2023/06/17 03:24:51;;;;;;;33.78;18.60;;;;;;;;;;5133980;27;20068;-69
2023/06/17 03:27:17;;;;;;;30.42;19.17;;;;;;;;;;5126870;27;20041;-70
2023/06/17 03:29:43;;;;;;;26.42;16.67;;;;;;;;;;5128969;27;20147;-69
2023/06/17 03:32:10;;;;;;;25.65;18.40;;;;;;;;;;5115541;27;20062;-70
2023/06/17 03:34:36;;;;;;;27.35;17.35;;;;;;;;;;5132957;27;20092;-69
2023/06/17 03:37:02;;;;;;;25.15;18.48;;;;;;;;;;5132021;27;20043;-70
2023/06/17 03:39:28;;;;;;;21.67;15.57;;;;;;;;;;5102760;27;20402;-69
2023/06/17 03:41:55;;;;;;;19.63;15.00;;;;;;;;;;5116075;27;20051;-69
2023/06/17 03:44:21;;;;;;;21.88;14.50;;;;;;;;;;5133592;27;20046;-69
2023/06/17 03:46:47;;;;;;;27.85;16.02;;;;;;;;;;5131366;27;20063;-69
2023/06/17 03:49:13;;;;;;;19.70;15.63;;;;;;;;;;5132412;27;20031;-70
2023/06/17 03:51:39;;;;;;;23.02;14.73;;;;;;;;;;5112407;27;20177;-69
2023/06/17 03:54:05;;;;;;;24.70;14.93;;;;;;;;;;5100967;27;20047;-69
2023/06/17 03:56:31;;;;;;;27.58;15.50;;;;;;;;;;5131952;27;20043;-69
2023/06/17 03:58:58;;;;;;;19.83;14.43;;;;;;;;;;5132292;27;20110;-69
2023/06/17 04:01:24;;;;;;;28.15;15.18;;;;;;;;;;5130915;27;20108;-69
2023/06/17 04:03:51;;;;;;;25.33;15.00;;;;;;;;;;5130111;27;20077;-70
2023/06/17 04:06:17;;;;;;;24.05;14.75;;;;;;;;;;5133201;27;20047;-69
2023/06/17 04:08:43;;;;;;;20.55;14.05;;;;;;;;;;5132002;27;20039;-69
2023/06/17 04:11:10;;;;;;;23.33;14.43;;;;;;;;;;5132591;27;20051;-70
2023/06/17 04:13:36;;;;;;;20.88;13.10;;;;;;;;;;5128486;27;20046;-69
2023/06/17 04:16:02;;;;;;;22.55;15.07;;;;;;;;;;5132283;27;20070;-68
2023/06/17 04:18:28;;;;;;;21.10;14.32;;;;;;;;;;5132194;27;20499;-66
2023/06/17 04:20:56;;;;;;;20.17;14.70;;;;;;;;;;5127041;27;20110;-69
2023/06/17 04:23:25;;;;;;;24.08;15.50;;;;;;;;;;5111754;27;20043;-69
2023/06/17 04:25:51;;;;;;;23.45;14.98;;;;;;;;;;5136904;27;20035;-70
2023/06/17 04:28:18;;;;;;;22.13;15.00;;;;;;;;;;5126290;27;20455;-69
2023/06/17 04:30:48;;;;;;;24.30;14.88;;;;;;;;;;5134403;27;20091;-69
2023/06/17 04:33:14;;;;;;;20.20;14.73;;;;;;;;;;5119230;27;20039;-69
2023/06/17 04:35:44;;;;;;;23.27;14.30;;;;;;;;;;5131960;27;20371;-69
2023/06/17 04:38:10;;;;;;;26.13;14.73;;;;;;;;;;5112742;27;20383;-69
2023/06/17 04:40:37;;;;;;;22.42;15.30;;;;;;;;;;5112325;27;20041;-70
2023/06/17 04:43:04;;;;;;;22.83;15.07;;;;;;;;;;5114424;27;20367;-69
2023/06/17 04:45:30;;;;;;;22.05;13.55;;;;;;;;;;5117162;27;20490;-68
2023/06/17 04:47:56;;;;;;;21.23;13.80;;;;;;;;;;5118231;27;20039;-70
2023/06/17 04:50:23;;;;;;;30.40;15.77;;;;;;;;;;5109915;27;20081;-67
2023/06/17 04:52:53;;;;;;;24.17;15.02;;;;;;;;;;5087657;27;20047;-68
2023/06/17 04:55:21;;;;;;;18.35;13.57;;;;;;;;;;5113388;27;20049;-68
2023/06/17 04:57:47;;;;;;;29.25;13.90;;;;;;;;;;5099366;27;20048;-68
2023/06/17 05:00:14;;;;;;;27.35;14.38;;;;;;;;;;5112641;27;20075;-68
2023/06/17 05:02:40;;;;;;;24.58;14.95;;;;;;;;;;5090765;27;20051;-68
2023/06/17 05:05:07;;;;;;;26.58;15.43;;;;;;;;;;5094791;27;20054;-68
2023/06/17 05:07:36;;;;;;;22.92;15.23;;;;;;;;;;5108315;27;20043;-68
2023/06/17 05:10:03;;;;;;;22.10;15.45;;;;;;;;;;5115276;27;20046;-68
2023/06/17 05:12:29;;;;;;;31.55;15.70;;;;;;;;;;5120471;27;20071;-68
2023/06/17 05:14:55;;;;;;;24.33;15.02;;;;;;;;;;5106950;28;20047;-68
2023/06/17 05:17:21;;;;;;;24.17;15.15;;;;;;;;;;5115273;28;20483;-68
2023/06/17 05:19:48;;;;;;;27.15;16.38;;;;;;;;;;5107134;28;20031;-68
2023/06/17 05:22:15;;;;;;;25.65;16.20;;;;;;;;;;5117746;27;20051;-68
2023/06/17 05:24:41;;;;;;;25.08;15.45;;;;;;;;;;5114186;27;20043;-68
2023/06/17 05:27:08;;;;;;;23.63;15.93;;;;;;;;;;5093406;28;20043;-68
2023/06/17 05:29:34;;;;;;;26.50;15.10;;;;;;;;;;5092717;28;20055;-68
2023/06/17 05:32:01;;;;;;;22.92;14.52;;;;;;;;;;5093182;28;20431;-68
2023/06/17 05:34:27;;;;;;;22.40;14.50;;;;;;;;;;5095821;28;20044;-68
2023/06/17 05:36:53;;;;;;;21.05;14.10;;;;;;;;;;5091746;28;20130;-68
2023/06/17 05:39:19;;;;;;;19.58;13.18;;;;;;;;;;5088226;28;20852;-68
2023/06/17 05:41:45;;;;;;;21.75;14.63;;;;;;;;;;5090377;28;20104;-68
2023/06/17 05:44:11;;;;;;;22.20;12.75;;;;;;;;;;5095287;28;20135;-68
2023/06/17 05:46:38;;;;;;;21.67;13.32;;;;;;;;;;5108829;28;20078;-67
2023/06/17 05:49:04;;;;;;;18.73;12.90;;;;;;;;;;5109164;28;20052;-69
2023/06/17 05:51:30;;;;;;;29.25;14.00;;;;;;;;;;5102755;28;20473;-69
2023/06/17 05:53:56;;;;;;;21.77;12.68;;;;;;;;;;5105809;28;20090;-68
2023/06/17 05:56:22;;;;;;;19.50;11.88;;;;;;;;;;5100841;28;20039;-68
2023/06/17 05:58:48;;;;;;;18.55;11.55;;;;;;;;;;5095477;28;20503;-68
2023/06/17 06:01:16;;;;;;;24.58;12.50;;;;;;;;;;5092668;28;20072;-68
2023/06/17 06:03:42;;;;;;;30.20;13.20;;;;;;;;;;5095278;27;20043;-68
2023/06/17 06:06:08;;;;;;;18.75;11.57;;;;;;;;;;5090085;28;20043;-68
2023/06/17 06:08:35;;;;;;;21.40;12.27;;;;;;;;;;5101675;28;20049;-68
2023/06/17 06:11:01;;;;;;;21.75;11.18;;;;;;;;;;5091636;27;20056;-68
2023/06/17 06:13:28;;;;;;;24.30;12.55;;;;;;;;;;5092354;28;20040;-68
2023/06/17 06:15:55;;;;;;;23.77;12.30;;;;;;;;;;5094263;27;20068;-68
2023/06/17 06:18:21;;;;;;;21.80;11.73;;;;;;;;;;5096269;28;20039;-68
2023/06/17 06:20:47;;;;;;;27.40;11.98;;;;;;;;;;5089710;28;20040;-68
2023/06/17 06:23:13;;;;;;;24.50;11.77;;;;;;;;;;5094996;28;20104;-68
2023/06/17 06:25:40;;;;;;;23.13;11.35;;;;;;;;;;5098605;28;20040;-69
2023/06/17 06:28:06;;;;;;;21.90;12.63;;;;;;;;;;5111381;28;20039;-68
2023/06/17 06:30:32;;;;;;;17.70;11.45;;;;;;;;;;5111138;28;20112;-68
2023/06/17 06:32:58;;;;;;;20.23;11.60;;;;;;;;;;5112441;28;20043;-68
2023/06/17 06:35:25;;;;;;;25.23;12.52;;;;;;;;;;5104600;28;20048;-69
2023/06/17 06:37:51;;;;;;;19.23;11.48;;;;;;;;;;5115019;28;20079;-68
2023/06/17 06:40:17;;;;;;;18.00;11.23;;;;;;;;;;5112192;28;20050;-69
2023/06/17 06:42:44;;;;;;;24.10;12.00;;;;;;;;;;5106632;28;20544;-68
2023/06/17 06:45:10;;;;;;;16.35;10.18;;;;;;;;;;5100541;27;20087;-69
2023/06/17 06:47:36;;;;;;;17.67;10.98;;;;;;;;;;5098812;28;20395;-69
2023/06/17 06:50:02;;;;;;;20.15;11.30;;;;;;;;;;5098998;27;20118;-69
2023/06/17 06:52:28;;;;;;;18.80;11.00;;;;;;;;;;5114631;28;20036;-68
2023/06/17 06:54:54;;;;;;;19.00;11.40;;;;;;;;;;5113644;28;20056;-67
2023/06/17 06:57:21;;;;;;;26.20;13.43;;;;;;;;;;5113058;27;20044;-67
2023/06/17 06:59:47;;;;;;;20.17;10.75;;;;;;;;;;5108926;27;20045;-68
2023/06/17 07:02:13;;;;;;;20.85;11.60;;;;;;;;;;5106007;28;20047;-68
2023/06/17 07:04:40;;;;;;;19.63;12.23;;;;;;;;;;5112836;28;20356;-68
2023/06/17 07:07:06;;;;;;;25.77;13.10;;;;;;;;;;5107022;27;20044;-67
2023/06/17 07:09:32;;;;;;;19.40;10.80;;;;;;;;;;5104190;28;20044;-67
2023/06/17 07:11:58;;;;;;;21.02;11.82;;;;;;;;;;5109947;27;20044;-68
2023/06/17 07:14:24;;;;;;;23.85;12.30;;;;;;;;;;5111938;28;20047;-66
2023/06/17 07:16:51;;;;;;;19.20;11.18;;;;;;;;;;5106896;28;20054;-68
2023/06/17 07:19:17;;;;;;;23.60;12.90;;;;;;;;;;5112837;27;21472;-67
2023/06/17 07:21:43;;;;;;;20.50;11.75;;;;;;;;;;5103123;28;20065;-68
2023/06/17 07:24:09;;;;;;;20.55;11.93;;;;;;;;;;5106710;28;20403;-67
2023/06/17 07:26:35;;;;;;;19.35;11.18;;;;;;;;;;5109325;27;20066;-68
2023/06/17 07:29:02;;;;;;;21.58;12.40;;;;;;;;;;5104520;27;20348;-69
2023/06/17 07:31:31;;;;;;;24.20;13.70;;;;;;;;;;5113620;27;20050;-68
2023/06/17 07:33:57;;;;;;;22.70;11.80;;;;;;;;;;5128679;27;20080;-68
2023/06/17 07:36:23;;;;;;;21.85;12.02;;;;;;;;;;5106764;28;20035;-68
2023/06/17 07:38:51;;;;;;;22.52;13.07;;;;;;;;;;5130638;27;20050;-68
2023/06/17 07:41:17;;;;;;;19.48;12.98;;;;;;;;;;5124091;27;20092;-68
2023/06/17 07:43:44;;;;;;;18.55;12.52;;;;;;;;;;5128574;27;20364;-68
2023/06/17 07:46:10;;;;;;;17.00;12.13;;;;;;;;;;5131239;27;20035;-68
2023/06/17 07:48:36;;;;;;;22.83;12.50;;;;;;;;;;5121745;27;20536;-68
2023/06/17 07:51:02;;;;;;;22.23;12.52;;;;;;;;;;5129529;27;20050;-68
2023/06/17 07:53:28;;;;;;;19.83;11.73;;;;;;;;;;5124646;27;20081;-68
2023/06/17 07:55:55;;;;;;;18.98;11.80;;;;;;;;;;5130513;27;20101;-68
2023/06/17 07:58:21;;;;;;;21.50;12.48;;;;;;;;;;5132289;27;20529;-68
2023/06/17 08:00:47;;;;;;;17.40;11.95;;;;;;;;;;5130588;27;20047;-68
2023/06/17 08:03:13;;;;;;;17.83;10.27;;;;;;;;;;5120271;27;20058;-68
2023/06/17 08:05:40;;;;;;;18.23;11.93;;;;;;;;;;5117914;27;20348;-68
2023/06/17 08:08:06;;;;;;;18.52;10.93;;;;;;;;;;5122688;27;20046;-68
2023/06/17 08:10:33;;;;;;;17.65;11.60;;;;;;;;;;5131411;27;20154;-68
2023/06/17 08:12:59;;;;;;;23.67;12.10;;;;;;;;;;5132713;27;20089;-68
2023/06/17 08:15:25;;;;;;;17.98;10.90;;;;;;;;;;5130479;27;20516;-68
2023/06/17 08:17:52;;;;;;;18.27;11.13;;;;;;;;;;5125837;27;20039;-68
2023/06/17 08:20:20;;;;;;;18.38;12.45;;;;;;;;;;5117786;27;20440;-68
2023/06/17 08:22:46;;;;;;;23.20;11.77;;;;;;;;;;5107589;27;20050;-68
2023/06/17 08:25:12;;;;;;;17.08;10.27;;;;;;;;;;5110022;27;20047;-68
2023/06/17 08:27:38;;;;;;;19.95;11.88;;;;;;;;;;5129372;27;20120;-68
2023/06/17 08:30:05;;;;;;;15.45;10.90;;;;;;;;;;5116571;27;20058;-67
2023/06/17 08:32:31;;;;;;;19.48;11.98;;;;;;;;;;5120655;27;20469;-64
2023/06/17 08:35:00;;;;;;;19.73;12.05;;;;;;;;;;5130540;27;20440;-67
2023/06/17 08:37:26;;;;;;;23.95;10.93;;;;;;;;;;5113541;27;20050;-67
2023/06/17 08:39:52;;;;;;;15.10;10.85;;;;;;;;;;5131811;27;20114;-66
2023/06/17 08:42:18;;;;;;;20.33;11.77;;;;;;;;;;5137462;27;20043;-66
2023/06/17 08:44:46;;;;;;;20.42;11.60;;;;;;;;;;5132948;27;20138;-65
2023/06/17 08:47:15;;;;;;;16.33;10.20;;;;;;;;;;5132067;27;20066;-65
2023/06/17 08:49:44;;;;;;;17.15;10.77;;;;;;;;;;5117510;27;20087;-66
2023/06/17 08:52:13;;;;;;;18.58;10.52;;;;;;;;;;5131977;27;20039;-68
2023/06/17 08:54:40;;;;;;;21.80;13.43;;;;;;;;;;5112417;27;20043;-68
2023/06/17 08:57:12;;;;;;;20.50;12.23;;;;;;;;;;5112864;27;20470;-68
2023/06/17 08:59:38;;;;;;;17.55;11.95;;;;;;;;;;5131987;27;20039;-68
2023/06/17 09:02:05;;;;;;;18.38;11.43;;;;;;;;;;5131118;27;20466;-68
2023/06/17 09:04:31;;;;;;;20.15;11.95;;;;;;;;;;5132774;27;20047;-68
2023/06/17 09:06:58;;;;;;;15.35;9.27;;;;;;;;;;5132285;27;20139;-68
2023/06/17 09:09:24;;;;;;;15.63;10.65;;;;;;;;;;5111991;27;20388;-68
2023/06/17 09:11:51;;;;;;;19.70;10.43;;;;;;;;;;5113499;28;20554;-68
2023/06/17 09:14:27;;;;;;;18.90;10.85;;;;;;;;;;5130989;28;20364;-68
2023/06/17 09:16:53;;;;;;;14.60;9.95;;;;;;;;;;5128225;27;20465;-68
2023/06/17 09:19:23;;;;;;;18.15;10.70;;;;;;;;;;5112698;28;20043;-68
2023/06/17 09:21:49;;;;;;;14.40;9.75;;;;;;;;;;5131883;28;20047;-68
2023/06/17 09:24:15;;;;;;;16.08;10.55;;;;;;;;;;5132310;28;20047;-68
2023/06/17 09:26:42;;;;;;;21.85;11.10;;;;;;;;;;5132667;27;20045;-68
2023/06/17 09:29:12;;;;;;;16.48;10.13;;;;;;;;;;5129180;27;20040;-68
2023/06/17 09:31:51;;;;;;;20.50;9.27;;;;;;;;;;5128951;27;20050;-68
2023/06/17 09:34:18;;;;;;;19.35;10.18;;;;;;;;;;5140013;27;20156;-68
2023/06/17 09:36:45;;;;;;;16.83;10.50;;;;;;;;;;5136097;27;20510;-69
2023/06/17 09:39:12;;;;;;;14.70;10.02;;;;;;;;;;5136519;27;20043;-68
2023/06/17 09:41:39;;;;;;;16.55;10.57;;;;;;;;;;5136710;27;20062;-68
2023/06/17 09:44:06;;;;;;;17.58;10.27;;;;;;;;;;5132436;27;20070;-68
2023/06/17 09:46:39;;;;;;;18.30;11.10;;;;;;;;;;5135456;27;20077;-68
2023/06/17 09:49:14;;;;;;;15.30;9.77;;;;;;;;;;5133275;27;20455;-68
2023/06/17 09:51:41;;;;;;;17.75;10.80;;;;;;;;;;5135972;27;20397;-68
2023/06/17 09:54:08;;;;;;;14.30;9.70;;;;;;;;;;5112015;27;20359;-68
2023/06/17 09:56:35;;;;;;;13.65;7.70;;;;;;;;;;5115358;27;20047;-68
2023/06/17 09:59:08;;;;;;;12.77;8.85;;;;;;;;;;5115597;27;20043;-68
2023/06/17 10:01:38;;;;;;;16.52;9.73;;;;;;;;;;5139204;27;20521;-69
2023/06/17 10:04:05;;;;;;;13.60;8.30;;;;;;;;;;5117121;27;20530;-68
2023/06/17 10:06:32;;;;;;;18.00;9.00;;;;;;;;;;5114630;27;20083;-69
2023/06/17 10:09:00;;;;;;;14.85;9.95;;;;;;;;;;5133744;27;20130;-69
2023/06/17 10:11:27;;;;;;;14.23;9.10;;;;;;;;;;5114441;27;20118;-68
2023/06/17 10:14:01;;;;;;;17.50;9.07;;;;;;;;;;5135888;27;20404;-69
2023/06/17 10:16:28;;;;;;;13.93;8.70;;;;;;;;;;5133882;27;20035;-69
2023/06/17 10:18:56;;;;;;;15.63;8.48;;;;;;;;;;5132621;27;20047;-69
2023/06/17 10:21:24;;;;;;;14.70;7.90;;;;;;;;;;5135053;27;20066;-69
2023/06/17 10:23:51;;;;;;;16.05;9.02;;;;;;;;;;5135806;27;20075;-69
2023/06/17 10:26:19;;;;;;;16.98;9.45;;;;;;;;;;5134896;27;20122;-69
2023/06/17 10:28:57;;;;;;;14.00;8.65;;;;;;;;;;5131719;27;20040;-69
2023/06/17 10:31:30;;;;;;;13.23;8.68;;;;;;;;;;5124736;27;20043;-69
2023/06/17 10:33:58;;;;;;;13.40;8.68;;;;;;;;;;5134494;27;20035;-69
2023/06/17 10:36:25;;;;;;;10.43;8.80;;;;;;;;;;5135038;27;20389;-69
2023/06/17 10:39:05;;;;;;;12.05;8.30;;;;;;;;;;5116092;27;20039;-69
2023/06/17 10:41:40;;;;;;;16.73;8.35;;;;;;;;;;5116625;27;20398;-69
2023/06/17 10:44:28;;;;;;;14.40;9.43;;;;;;;;;;5135466;27;20050;-69
2023/06/17 10:46:57;;;;;;;12.25;9.18;;;;;;;;;;5133971;27;20050;-69
2023/06/17 10:49:24;;;;;;;13.60;8.93;;;;;;;;;;5099034;27;20084;-69
2023/06/17 10:51:51;;;;;;;16.00;8.98;;;;;;;;;;5132484;27;20058;-69
2023/06/17 10:54:30;;;;;;;13.00;8.50;;;;;;;;;;5115129;27;20039;-69
2023/06/17 10:56:56;;;;;;;13.88;9.18;;;;;;;;;;5133287;27;20398;-69
2023/06/17 10:59:26;;;;;;;17.45;9.60;;;;;;;;;;5116681;27;20039;-69
2023/06/17 11:01:53;;;;;;;11.32;8.48;;;;;;;;;;5132647;27;20486;-69
2023/06/17 11:04:19;;;;;;;15.05;9.40;;;;;;;;;;5116476;27;20082;-69
2023/06/17 11:06:46;;;;;;;12.98;8.98;;;;;;;;;;5115094;27;20043;-69
2023/06/17 11:09:12;;;;;;;13.10;9.43;;;;;;;;;;5116120;27;20118;-69
2023/06/17 11:11:38;;;;;;;13.15;8.70;;;;;;;;;;5116841;27;20039;-69
2023/06/17 11:14:04;;;;;;;14.80;8.73;;;;;;;;;;5133963;27;20204;-69
2023/06/17 11:16:31;;;;;;;12.65;8.38;;;;;;;;;;5133764;27;20035;-69
2023/06/17 11:18:59;;;;;;;13.82;9.15;;;;;;;;;;5116244;27;20100;-69
2023/06/17 11:21:25;;;;;;;14.45;9.25;;;;;;;;;;5115800;27;20047;-69
2023/06/17 11:23:52;;;;;;;15.50;9.25;;;;;;;;;;5133781;27;20088;-69
2023/06/17 11:26:19;;;;;;;13.25;8.90;;;;;;;;;;5116297;27;20232;-69
2023/06/17 11:28:46;;;;;;;14.98;9.77;;;;;;;;;;5130384;27;20062;-69
2023/06/17 11:31:12;;;;;;;15.13;9.20;;;;;;;;;;5133041;27;20062;-69
2023/06/17 11:33:40;;;;;;;12.38;8.10;;;;;;;;;;5134576;27;20043;-69
2023/06/17 11:36:09;;;;;;;13.30;8.65;;;;;;;;;;5115340;27;20043;-69
2023/06/17 11:38:36;;;;;;;15.68;9.43;;;;;;;;;;5115819;27;20050;-69
2023/06/17 11:41:02;;;;;;;14.32;8.63;;;;;;;;;;5114622;27;20114;-69
2023/06/17 11:43:29;;;;;;;10.20;7.50;;;;;;;;;;5097679;27;20035;-69
2023/06/17 11:45:58;;;;;;;12.38;8.30;;;;;;;;;;5133722;27;20103;-69
2023/06/17 11:48:34;;;;;;;14.40;8.50;;;;;;;;;;5131678;27;20046;-69
2023/06/17 11:51:00;;;;;;;13.35;8.43;;;;;;;;;;5114316;27;20092;-69
2023/06/17 11:53:31;;;;;;;12.57;8.07;;;;;;;;;;5134167;27;20099;-69
2023/06/17 11:56:01;;;;;;;14.73;8.25;;;;;;;;;;5132871;27;20063;-69
2023/06/17 11:58:28;;;;;;;16.45;9.02;;;;;;;;;;5133729;27;20043;-69
2023/06/17 12:00:58;;;;;;;15.48;9.10;;;;;;;;;;5134021;27;20428;-69
2023/06/17 12:03:25;;;;;;;13.35;7.95;;;;;;;;;;5132786;27;20043;-69
2023/06/17 12:05:51;;;;;;;13.18;8.27;;;;;;;;;;5132943;27;20046;-69
2023/06/17 12:08:17;;;;;;;12.73;8.55;;;;;;;;;;5115368;27;20482;-69
2023/06/17 12:10:43;;;;;;;11.77;8.18;;;;;;;;;;5133055;27;20099;-69
2023/06/17 12:13:13;;;;;;;11.20;7.75;;;;;;;;;;5114745;27;20051;-69
2023/06/17 12:15:40;;;;;;;12.90;7.97;;;;;;;;;;5113308;27;20103;-69
2023/06/17 12:18:13;;;;;;;15.45;7.75;;;;;;;;;;5096861;27;20058;-69
2023/06/17 12:20:48;;;;;;;15.27;7.38;;;;;;;;;;5115145;27;20058;-69
2023/06/17 12:23:15;;;;;;;12.27;6.53;;;;;;;;;;5114022;27;20051;-69
2023/06/17 12:25:41;;;;;;;12.30;6.82;;;;;;;;;;5132765;27;20043;-69
2023/06/17 12:28:08;;;;;;;10.68;6.28;;;;;;;;;;5132878;27;20051;-69
2023/06/17 12:30:34;;;;;;;12.05;6.85;;;;;;;;;;5100522;27;20395;-69
2023/06/17 12:33:00;;;;;;;11.55;6.72;;;;;;;;;;5131596;27;20043;-69
2023/06/17 12:35:27;;;;;;;12.48;6.70;;;;;;;;;;5114377;27;20419;-69
2023/06/17 12:37:55;;;;;;;8.80;6.40;;;;;;;;;;5133251;27;20363;-69
2023/06/17 12:40:21;;;;;;;13.35;6.07;;;;;;;;;;5132163;27;20047;-69
2023/06/17 12:42:47;;;;;;;9.88;6.32;;;;;;;;;;5114712;27;20046;-69
2023/06/17 12:45:13;;;;;;;11.73;6.18;;;;;;;;;;5113759;27;20058;-69
2023/06/17 12:47:40;;;;;;;9.77;5.90;;;;;;;;;;5110213;27;20452;-69
2023/06/17 12:50:07;;;;;;;9.90;5.65;;;;;;;;;;5123885;27;20131;-69
2023/06/17 12:52:34;;;;;;;10.00;5.88;;;;;;;;;;5132216;27;20468;-69
2023/06/17 12:55:01;;;;;;;8.45;4.80;;;;;;;;;;5131972;27;20091;-69
2023/06/17 12:57:27;;;;;;;11.40;6.53;;;;;;;;;;5114371;27;20137;-69
2023/06/17 12:59:54;;;;;;;11.95;6.07;;;;;;;;;;5112827;27;20069;-69
2023/06/17 13:02:20;;;;;;;11.60;6.45;;;;;;;;;;5113691;28;20482;-69
2023/06/17 13:04:46;;;;;;;9.73;6.15;;;;;;;;;;5124981;27;20035;-69
2023/06/17 13:07:12;;;;;;;10.40;6.10;;;;;;;;;;5113842;28;20051;-69
2023/06/17 13:09:39;;;;;;;11.32;6.30;;;;;;;;;;5132637;27;20050;-69
2023/06/17 13:12:05;;;;;;;11.32;6.05;;;;;;;;;;5132877;27;20164;-69
2023/06/17 13:14:31;;;;;;;11.32;5.78;;;;;;;;;;5112697;28;20126;-69
2023/06/17 13:16:58;;;;;;;12.18;6.13;;;;;;;;;;5113719;27;20360;-69
2023/06/17 13:19:24;;;;;;;14.02;6.25;;;;;;;;;;5107872;28;20051;-69
2023/06/17 13:21:50;;;;;;;13.13;7.53;;;;;;;;;;5131828;28;20043;-69
2023/06/17 13:24:16;;;;;;;13.27;7.07;;;;;;;;;;5130880;27;20077;-69
2023/06/17 13:26:42;;;;;;;11.90;6.57;;;;;;;;;;5114090;28;20084;-69
2023/06/17 13:29:09;;;;;;;11.90;7.20;;;;;;;;;;5124050;28;20122;-70
2023/06/17 13:31:36;;;;;;;12.85;7.65;;;;;;;;;;5125030;28;20127;-69
2023/06/17 13:34:02;;;;;;;14.30;7.38;;;;;;;;;;5131925;27;20058;-69
2023/06/17 13:36:29;;;;;;;13.02;7.35;;;;;;;;;;5131124;27;20571;-69
2023/06/17 13:38:55;;;;;;;13.10;8.13;;;;;;;;;;5132290;28;20039;-69
2023/06/17 13:41:21;;;;;;;13.70;7.97;;;;;;;;;;5114308;28;20051;-69
2023/06/17 13:43:47;;;;;;;12.80;7.85;;;;;;;;;;5130907;27;20061;-69
2023/06/17 13:46:14;;;;;;;15.13;8.07;;;;;;;;;;5132337;28;20136;-69
2023/06/17 13:48:40;;;;;;;13.30;7.40;;;;;;;;;;5104883;28;20039;-70
2023/06/17 13:51:06;;;;;;;12.23;6.72;;;;;;;;;;5130263;27;20079;-70
2023/06/17 13:53:32;;;;;;;13.07;6.57;;;;;;;;;;5131574;27;20555;-69
2023/06/17 13:55:59;;;;;;;13.10;6.53;;;;;;;;;;5131744;28;20095;-69
2023/06/17 13:58:25;;;;;;;12.32;6.45;;;;;;;;;;5131778;28;20043;-70
2023/06/17 14:00:52;;;;;;;11.90;6.50;;;;;;;;;;5097060;28;20054;-69
2023/06/17 14:03:18;;;;;;;15.27;7.25;;;;;;;;;;5131341;28;20474;-69
2023/06/17 14:05:45;;;;;;;11.07;6.57;;;;;;;;;;5130240;27;20135;-69
2023/06/17 14:08:11;;;;;;;10.82;6.35;;;;;;;;;;5113707;28;20124;-69
2023/06/17 14:10:37;;;;;;;9.68;6.28;;;;;;;;;;5113030;28;20490;-69
2023/06/17 14:13:03;;;;;;;12.32;6.30;;;;;;;;;;5114606;27;20050;-69
2023/06/17 14:15:30;;;;;;;10.32;5.60;;;;;;;;;;5135491;27;20070;-69
2023/06/17 14:17:56;;;;;;;10.85;6.15;;;;;;;;;;5134196;27;20051;-69
2023/06/17 14:20:22;;;;;;;12.63;6.75;;;;;;;;;;5108068;27;20038;-69